Time;durP1;ratioP1;P1;durP2;ratioP2;P2;SDS_P1;SDS_P2;PMS_P1;PMS_P2;Temp;Humidity;BMP_temperature;BMP_pressure;BME280_temperature;BME280_humidity;BME280_pressure;Samples;Min_cycle;Max_cycle;Signal;HPM_P1;HPM_P2
2023/04/17 00:01:04;;;;;;;9.80;8.77;;;;;;;14.04;83.85;94143.03;5074765;28;20674;-78
2023/04/17 00:03:31;;;;;;;10.23;7.77;;;;;;;14.06;83.69;94133.97;5074586;28;20484;-78
2023/04/17 00:05:58;;;;;;;13.90;8.60;;;;;;;14.13;83.58;94140.19;5074838;28;20482;-79
2023/04/17 00:08:25;;;;;;;11.47;9.53;;;;;;;14.14;83.45;94144.47;5074940;28;20768;-78
2023/04/17 00:10:53;;;;;;;16.40;10.10;;;;;;;14.11;83.23;94141.34;5074718;28;20445;-78
2023/04/17 00:13:20;;;;;;;13.67;10.70;;;;;;;14.13;83.05;94144.66;5074073;28;20450;-78
2023/04/17 00:15:46;;;;;;;19.30;10.90;;;;;;;14.13;83.08;94145.47;5074327;28;20448;-78
2023/04/17 00:18:13;;;;;;;15.23;10.77;;;;;;;14.14;83.38;94139.19;5074343;28;20819;-79
2023/04/17 00:20:40;;;;;;;10.97;9.83;;;;;;;14.14;82.63;94141.00;5074471;28;20437;-78
2023/04/17 00:23:07;;;;;;;11.70;9.97;;;;;;;14.14;82.68;94136.56;5073930;28;20560;-79
2023/04/17 00:25:34;;;;;;;11.10;9.17;;;;;;;14.12;82.50;94141.19;5074550;28;20942;-78
2023/04/17 00:28:02;;;;;;;13.40;10.10;;;;;;;14.07;82.67;94143.50;5074355;28;20452;-78
2023/04/17 00:30:29;;;;;;;13.77;10.17;;;;;;;14.08;82.74;94136.44;5074001;28;20457;-78
2023/04/17 00:32:55;;;;;;;11.50;9.67;;;;;;;14.07;82.55;94138.25;5074390;28;20452;-79
2023/04/17 00:35:22;;;;;;;11.67;9.57;;;;;;;13.99;83.16;94140.09;5073643;28;20447;-79
2023/04/17 00:37:49;;;;;;;12.00;10.57;;;;;;;13.77;83.39;94138.97;5073969;28;20450;-78
2023/04/17 00:40:16;;;;;;;13.73;10.47;;;;;;;13.77;83.71;94144.25;5073331;28;20446;-79
2023/04/17 00:42:43;;;;;;;12.10;9.90;;;;;;;13.75;83.34;94133.88;5073842;28;20446;-79
2023/04/17 00:45:11;;;;;;;12.53;8.87;;;;;;;13.74;84.29;94141.94;5038551;28;20490;-79
2023/04/17 00:47:39;;;;;;;15.27;10.07;;;;;;;13.67;84.54;94143.63;5074128;28;20447;-78
2023/04/17 00:50:07;;;;;;;15.33;9.70;;;;;;;13.64;84.49;94145.59;5073646;28;20531;-78
2023/04/17 00:52:34;;;;;;;15.33;8.97;;;;;;;13.67;84.74;94138.34;5073821;28;20437;-78
2023/04/17 00:55:02;;;;;;;12.77;10.30;;;;;;;13.70;84.89;94136.19;5074098;28;20430;-79
2023/04/17 00:57:29;;;;;;;9.83;8.80;;;;;;;13.73;85.09;94133.22;5054870;28;20446;-79
2023/04/17 00:59:57;;;;;;;10.53;8.43;;;;;;;13.79;85.28;94121.16;5073214;28;20442;-79
2023/04/17 01:02:25;;;;;;;10.53;8.67;;;;;;;13.78;85.48;94132.72;5072861;28;20527;-79
2023/04/17 01:04:52;;;;;;;8.73;7.70;;;;;;;13.79;86.10;94134.34;5072829;28;20522;-78
2023/04/17 01:07:19;;;;;;;9.47;8.60;;;;;;;13.77;86.47;94131.06;5073928;28;20446;-79
2023/04/17 01:09:46;;;;;;;10.47;8.63;;;;;;;13.83;85.97;94135.66;5073671;28;20909;-79
2023/04/17 01:12:19;;;;;;;8.10;7.30;;;;;;;13.84;86.14;94132.84;5073475;28;20454;-77
2023/04/17 01:14:47;;;;;;;16.60;8.80;;;;;;;13.84;86.19;94132.03;5073394;28;20494;-78
2023/04/17 01:17:14;;;;;;;14.03;10.10;;;;;;;13.82;86.28;94126.09;5054618;28;20450;-78
2023/04/17 01:19:42;;;;;;;12.43;9.60;;;;;;;13.85;85.71;94126.59;5072777;28;20542;-78
2023/04/17 01:22:09;;;;;;;12.90;10.40;;;;;;;13.82;85.89;94126.09;5072671;28;20458;-78
2023/04/17 01:24:37;;;;;;;14.70;9.17;;;;;;;13.77;85.51;94128.44;5072309;28;20502;-78
2023/04/17 01:27:05;;;;;;;13.30;9.90;;;;;;;13.75;85.03;94125.13;5073088;28;20441;-79
2023/04/17 01:29:32;;;;;;;12.33;8.83;;;;;;;13.72;85.19;94128.13;5073643;28;20497;-78
2023/04/17 01:31:59;;;;;;;10.03;9.03;;;;;;;13.69;85.27;94121.38;5054981;28;20443;-78
2023/04/17 01:34:26;;;;;;;11.00;8.80;;;;;;;13.67;85.23;94130.44;5073458;28;20492;-78
2023/04/17 01:36:52;;;;;;;10.67;8.07;;;;;;;13.60;85.46;94120.56;5074153;28;20437;-79
2023/04/17 01:39:19;;;;;;;13.00;9.20;;;;;;;13.66;85.31;94120.88;5073275;28;20445;-78
2023/04/17 01:41:48;;;;;;;9.23;8.20;;;;;;;13.66;84.80;94120.88;5073541;28;20451;-78
2023/04/17 01:44:15;;;;;;;12.17;8.47;;;;;;;13.67;84.54;94125.16;5054395;28;20492;-78
2023/04/17 01:46:41;;;;;;;11.90;8.73;;;;;;;13.66;84.58;94113.78;5073996;28;20808;-78
2023/04/17 01:49:08;;;;;;;14.73;8.90;;;;;;;13.71;84.14;94115.91;5073438;28;20451;-79
2023/04/17 01:51:35;;;;;;;11.53;8.50;;;;;;;13.72;83.98;94126.31;5074643;28;20448;-79
2023/04/17 01:54:02;;;;;;;8.80;6.53;;;;;;;13.72;83.57;94117.56;5076952;28;20501;-79
2023/04/17 01:56:29;;;;;;;10.63;7.90;;;;;;;13.75;83.25;94110.13;5077484;28;20453;-78
2023/04/17 01:58:57;;;;;;;14.17;8.50;;;;;;;13.64;82.69;94113.16;5041984;28;20436;-77
2023/04/17 02:01:24;;;;;;;9.57;7.70;;;;;;;13.60;82.92;94106.56;5077409;28;20433;-79
2023/04/17 02:03:50;;;;;;;11.80;6.83;;;;;;;13.63;82.83;94101.78;5042004;28;20478;-79
2023/04/17 02:06:17;;;;;;;8.43;7.37;;;;;;;13.64;82.93;94102.59;5077092;28;20920;-79
2023/04/17 02:08:44;;;;;;;13.23;8.60;;;;;;;13.46;84.05;94100.16;5077026;28;20986;-79
2023/04/17 02:11:12;;;;;;;12.27;8.40;;;;;;;13.11;85.07;94106.56;5077199;28;20450;-78
2023/04/17 02:13:39;;;;;;;9.87;6.93;;;;;;;13.26;84.16;94101.47;5077206;28;20468;-78
2023/04/17 02:16:08;;;;;;;9.50;7.47;;;;;;;13.39;83.24;94100.97;5077349;28;20457;-79
2023/04/17 02:18:35;;;;;;;12.00;7.33;;;;;;;13.46;82.88;94092.25;5076777;28;20948;-78
2023/04/17 02:21:01;;;;;;;11.23;6.90;;;;;;;13.56;82.79;94100.78;5076798;28;20430;-79
2023/04/17 02:23:28;;;;;;;8.20;6.60;;;;;;;13.47;82.81;94098.34;5076661;28;20473;-78
2023/04/17 02:25:55;;;;;;;18.00;7.97;;;;;;;13.40;82.81;94094.72;5076645;28;20445;-79
2023/04/17 02:28:22;;;;;;;14.57;7.50;;;;;;;13.44;83.17;94104.75;5076670;28;20919;-78
2023/04/17 02:30:49;;;;;;;8.50;6.83;;;;;;;13.14;84.55;94106.22;5076587;28;20461;-77
2023/04/17 02:33:17;;;;;;;15.07;8.33;;;;;;;12.99;85.86;94102.59;5076749;28;20438;-79
2023/04/17 02:35:44;;;;;;;9.30;6.90;;;;;;;12.92;87.46;94099.78;5076677;28;20524;-79
2023/04/17 02:38:11;;;;;;;10.17;8.47;;;;;;;12.67;89.43;94101.56;5076454;28;20452;-79
2023/04/17 02:40:41;;;;;;;11.57;10.37;;;;;;;12.51;93.60;94103.38;5078173;28;20473;-80
2023/04/17 02:43:08;;;;;;;12.53;11.23;;;;;;;12.36;95.61;94103.97;5077864;28;20816;-79
2023/04/17 02:45:43;;;;;;;19.80;11.43;;;;;;;12.17;98.01;94099.00;5077850;28;20485;-80
2023/04/17 02:48:10;;;;;;;13.53;12.10;;;;;;;12.35;97.53;94104.94;5076868;28;20445;-79
2023/04/17 02:50:38;;;;;;;13.90;11.30;;;;;;;12.27;98.27;94102.31;5076332;28;20444;-80
2023/04/17 02:53:05;;;;;;;18.30;11.73;;;;;;;12.34;98.39;94105.13;5076021;28;20846;-78
2023/04/17 02:55:32;;;;;;;16.63;13.23;;;;;;;12.41;97.31;94101.69;5041164;28;20448;-78
2023/04/17 02:57:58;;;;;;;14.97;12.70;;;;;;;12.29;97.52;94097.72;5075988;28;20449;-78
2023/04/17 03:00:26;;;;;;;15.70;11.43;;;;;;;12.28;99.22;94111.03;5076299;28;20961;-79
2023/04/17 03:02:53;;;;;;;16.67;13.60;;;;;;;12.22;99.70;94104.59;5075611;28;20457;-80
2023/04/17 03:05:22;;;;;;;18.93;14.90;;;;;;;12.17;100.00;94111.31;5076067;28;21004;-78
2023/04/17 03:07:50;;;;;;;22.20;14.60;;;;;;;12.04;100.00;94098.59;5076344;28;20461;-80
2023/04/17 03:10:18;;;;;;;23.97;14.97;;;;;;;12.01;100.00;94101.56;5075476;28;21162;-78
2023/04/17 03:12:44;;;;;;;17.80;12.83;;;;;;;12.00;100.00;94110.41;5075881;28;20924;-79
2023/04/17 03:15:11;;;;;;;19.73;13.70;;;;;;;11.75;100.00;94109.44;5076050;28;20432;-79
2023/04/17 03:17:40;;;;;;;18.77;13.70;;;;;;;11.78;100.00;94111.78;5040633;28;20433;-79
2023/04/17 03:20:08;;;;;;;18.30;13.20;;;;;;;11.78;100.00;94107.34;5076259;28;20433;-79
2023/04/17 03:22:35;;;;;;;16.77;13.70;;;;;;;11.81;100.00;94115.91;5040595;28;20425;-79
2023/04/17 03:25:04;;;;;;;14.57;12.33;;;;;;;11.84;100.00;94112.97;5075461;28;20998;-79
2023/04/17 03:27:31;;;;;;;16.23;12.30;;;;;;;11.73;100.00;94114.84;5040545;28;20436;-79
2023/04/17 03:29:57;;;;;;;16.00;11.90;;;;;;;11.60;100.00;94109.22;5075635;28;20429;-78
2023/04/17 03:32:24;;;;;;;16.53;9.90;;;;;;;11.35;100.00;94110.03;5075713;28;20432;-79
2023/04/17 03:34:51;;;;;;;13.73;10.30;;;;;;;11.41;100.00;94106.78;5075489;28;20771;-79
2023/04/17 03:37:18;;;;;;;15.13;10.10;;;;;;;11.37;100.00;94113.31;5075007;28;21014;-79
2023/04/17 03:39:44;;;;;;;15.10;10.07;;;;;;;11.23;100.00;94111.25;5075517;28;20429;-79
2023/04/17 03:42:13;;;;;;;12.93;9.20;;;;;;;11.30;100.00;94107.03;5075448;28;20436;-78
2023/04/17 03:44:40;;;;;;;14.77;9.23;;;;;;;11.33;100.00;94117.25;5040196;28;20508;-78
2023/04/17 03:47:07;;;;;;;16.40;8.37;;;;;;;11.31;100.00;94122.66;5074733;28;20455;-79
2023/04/17 03:49:34;;;;;;;15.17;9.00;;;;;;;11.46;100.00;94112.38;5074785;28;20439;-79
2023/04/17 03:52:02;;;;;;;14.60;7.27;;;;;;;11.52;100.00;94117.03;5075028;28;20440;-78
2023/04/17 03:54:34;;;;;;;10.33;7.80;;;;;;;11.50;100.00;94121.59;5075052;28;20459;-80
2023/04/17 03:57:01;;;;;;;13.17;7.63;;;;;;;11.38;100.00;94112.34;5075081;28;20456;-80
2023/04/17 03:59:30;;;;;;;15.30;7.57;;;;;;;11.36;100.00;94123.00;5075869;28;20436;-80
2023/04/17 04:01:57;;;;;;;8.40;7.47;;;;;;;11.35;99.06;94110.03;5074549;28;20452;-80
2023/04/17 04:04:24;;;;;;;13.03;8.20;;;;;;;11.39;96.77;94127.13;5074413;28;20492;-80
2023/04/17 04:06:51;;;;;;;16.37;6.93;;;;;;;11.44;96.70;94123.06;5075526;28;20433;-80
2023/04/17 04:09:18;;;;;;;8.50;7.47;;;;;;;11.50;95.51;94113.72;5074782;28;20464;-81
2023/04/17 04:11:45;;;;;;;12.90;6.90;;;;;;;11.53;94.55;94115.22;5074306;28;20457;-80
2023/04/17 04:14:12;;;;;;;15.57;7.30;;;;;;;11.54;94.45;94115.06;5073954;28;20504;-80
2023/04/17 04:16:40;;;;;;;9.90;7.20;;;;;;;11.57;95.04;94120.03;5074448;28;20436;-80
2023/04/17 04:19:07;;;;;;;10.20;7.60;;;;;;;11.64;94.24;94117.59;5074517;28;20445;-80
2023/04/17 04:21:34;;;;;;;18.60;7.77;;;;;;;11.84;93.18;94118.22;5074606;28;20462;-80
2023/04/17 04:24:01;;;;;;;10.70;7.07;;;;;;;11.78;94.21;94123.13;5074373;28;20475;-80
2023/04/17 04:26:28;;;;;;;9.50;6.43;;;;;;;11.91;93.31;94121.88;5074123;28;20537;-80
2023/04/17 04:28:55;;;;;;;16.60;8.27;;;;;;;11.96;92.32;94125.69;5074394;28;20525;-81
2023/04/17 04:31:22;;;;;;;10.30;7.70;;;;;;;12.00;92.18;94131.44;5074520;28;20838;-81
2023/04/17 04:33:53;;;;;;;25.23;9.27;;;;;;;11.74;93.19;94120.94;5074248;28;20545;-81
2023/04/17 04:36:28;;;;;;;11.87;7.60;;;;;;;11.73;92.93;94130.63;5053295;27;1340258;-80
2023/04/17 04:38:58;;;;;;;12.43;6.90;;;;;;;11.88;93.53;94130.09;5132136;28;20758;-80
2023/04/17 04:41:25;;;;;;;8.87;6.90;;;;;;;11.96;92.75;94135.38;5132199;28;20426;-79
2023/04/17 04:43:52;;;;;;;16.30;7.33;;;;;;;11.77;93.38;94131.13;5131869;28;20434;-80
2023/04/17 04:46:19;;;;;;;11.30;7.87;;;;;;;11.73;94.56;94137.69;5132350;28;20469;-79
2023/04/17 04:48:46;;;;;;;19.33;8.97;;;;;;;11.74;95.37;94137.53;5131902;28;20434;-80
2023/04/17 04:51:13;;;;;;;10.13;7.00;;;;;;;11.69;96.53;94129.28;5131566;28;20853;-79
2023/04/17 04:53:41;;;;;;;11.57;7.70;;;;;;;11.61;99.03;94133.69;5079014;28;20449;-77
2023/04/17 04:56:08;;;;;;;18.07;8.20;;;;;;;11.56;99.84;94139.38;5131396;28;20493;-79
2023/04/17 04:58:35;;;;;;;12.20;8.47;;;;;;;11.51;100.00;94127.69;5131413;28;20455;-78
2023/04/17 05:01:02;;;;;;;12.97;7.53;;;;;;;11.44;100.00;94138.00;5131803;28;20434;-80
2023/04/17 05:03:30;;;;;;;18.07;7.00;;;;;;;11.60;100.00;94129.41;5078870;28;20873;-83
2023/04/17 05:05:56;;;;;;;27.87;10.70;;;;;;;12.14;100.00;94127.38;5130636;28;20446;-77
2023/04/17 05:08:23;;;;;;;14.10;7.93;;;;;;;13.66;97.51;94139.34;5130781;28;20430;-78
2023/04/17 05:10:52;;;;;;;7.47;5.90;;;;;;;13.82;90.71;94149.84;5130816;28;20439;-80
2023/04/17 05:13:19;;;;;;;13.23;6.90;;;;;;;13.67;88.55;94148.88;5129859;28;20492;-80
2023/04/17 05:15:46;;;;;;;9.23;7.50;;;;;;;13.19;89.32;94148.72;5130499;28;20477;-78
2023/04/17 05:18:13;;;;;;;15.10;9.30;;;;;;;13.00;90.59;94141.94;5130742;28;20427;-80
2023/04/17 05:20:40;;;;;;;8.40;7.30;;;;;;;12.96;90.80;94145.88;5130814;28;20476;-81
2023/04/17 05:23:07;;;;;;;8.83;6.50;;;;;;;12.38;93.76;94148.53;5077932;28;20447;-81
2023/04/17 05:25:33;;;;;;;12.93;7.73;;;;;;;12.26;94.18;94150.63;5130417;28;20456;-80
2023/04/17 05:28:01;;;;;;;10.13;7.20;;;;;;;12.15;96.21;94153.56;5129937;28;20438;-81
2023/04/17 05:30:29;;;;;;;14.57;7.53;;;;;;;11.90;97.78;94141.28;5130102;28;20455;-81
2023/04/17 05:32:57;;;;;;;12.83;7.33;;;;;;;11.76;98.43;94145.25;5130454;28;20437;-81
2023/04/17 05:35:24;;;;;;;10.07;7.47;;;;;;;11.76;98.88;94146.09;5130852;27;20593;-81
2023/04/17 05:37:51;;;;;;;17.77;7.90;;;;;;;11.58;100.00;94142.69;5130331;28;20454;-83
2023/04/17 05:40:18;;;;;;;9.57;7.43;;;;;;;11.41;100.00;94141.75;5131032;28;20445;-80
2023/04/17 05:42:45;;;;;;;8.57;7.50;;;;;;;11.55;100.00;94144.78;5130952;28;20441;-86
2023/04/17 05:45:14;;;;;;;9.67;6.77;;;;;;;11.38;100.00;94152.56;5130571;28;20822;-80
2023/04/17 05:51:02;;;;;;;9.00;8.07;;;;;;;11.42;100.00;94155.72;5088101;28;20448;-80
2023/04/17 05:53:30;;;;;;;9.80;7.83;;;;;;;11.49;100.00;94156.75;5096139;28;20463;-80
2023/04/17 05:55:57;;;;;;;18.20;8.17;;;;;;;11.57;100.00;94150.75;5096527;28;21013;-83
2023/04/17 05:58:24;;;;;;;11.80;7.50;;;;;;;11.60;99.62;94148.63;5095958;28;20540;-81
2023/04/17 06:00:52;;;;;;;13.17;7.80;;;;;;;11.68;99.78;94160.97;5095890;28;20439;-81
2023/04/17 06:03:19;;;;;;;21.80;8.30;;;;;;;11.81;98.26;94157.97;5096077;28;20463;-82
2023/04/17 06:05:47;;;;;;;11.10;6.87;;;;;;;11.88;98.36;94164.28;5096176;28;20536;-81
2023/04/17 06:08:13;;;;;;;11.30;6.40;;;;;;;11.91;97.19;94170.03;5096235;28;20436;-81
2023/04/17 06:10:40;;;;;;;9.90;6.23;;;;;;;11.99;97.23;94169.25;5096130;28;20447;-80
2023/04/17 06:23:14;;;;;;;8.00;6.80;;;;;;;12.08;95.37;94169.13;5074937;28;20460;-81
2023/04/17 06:25:41;;;;;;;11.20;7.57;;;;;;;12.11;94.33;94170.59;5075118;28;21000;-82
2023/04/17 06:28:07;;;;;;;8.10;6.20;;;;;;;12.28;94.17;94177.59;5089616;28;20471;-82
2023/04/17 06:30:34;;;;;;;9.50;7.27;;;;;;;12.41;93.67;94180.59;5095302;28;20436;-85
2023/04/17 06:33:01;;;;;;;9.13;6.50;;;;;;;12.32;93.16;94184.19;5096246;28;20460;-84
2023/04/17 06:35:31;;;;;;;21.67;7.90;;;;;;;12.48;92.77;94187.91;5075184;28;20495;-83
2023/04/17 06:37:58;;;;;;;9.50;7.37;;;;;;;12.56;93.41;94187.91;5075443;28;20502;-83
2023/04/17 06:40:26;;;;;;;10.80;7.30;;;;;;;12.69;93.25;94188.28;5078725;28;20806;-82
2023/04/17 06:42:53;;;;;;;11.63;5.80;;;;;;;12.82;92.57;94199.19;5095892;28;20452;-82
2023/04/17 06:45:20;;;;;;;11.43;6.43;;;;;;;12.76;92.67;94189.31;5095072;28;20452;-82
2023/04/17 06:47:47;;;;;;;11.77;6.20;;;;;;;12.92;93.01;94191.97;5095520;28;20535;-82
2023/04/17 06:53:40;;;;;;;15.10;8.63;;;;;;;12.91;93.32;94189.50;5095164;28;20440;-82
2023/04/17 06:56:09;;;;;;;13.07;8.13;;;;;;;12.91;93.74;94182.41;5095085;28;20476;-83
2023/04/17 06:58:42;;;;;;;17.63;8.47;;;;;;;12.99;93.17;94184.22;5094227;28;20476;-83
2023/04/17 07:01:09;;;;;;;20.53;8.90;;;;;;;13.18;92.65;94186.59;5095211;28;20939;-82
2023/04/17 07:03:36;;;;;;;22.67;9.53;;;;;;;13.29;91.72;94183.63;5096707;28;20426;-81
2023/04/17 07:06:15;;;;;;;16.77;9.27;;;;;;;13.35;90.51;94187.47;5095600;28;20778;-83
2023/04/17 07:08:42;;;;;;;8.10;7.37;;;;;;;13.35;90.06;94190.09;5095253;28;20438;-84
2023/04/17 07:11:11;;;;;;;13.47;7.17;;;;;;;13.19;90.42;94195.34;5095516;28;20450;-82
2023/04/17 07:13:37;;;;;;;10.40;8.37;;;;;;;13.30;91.07;94197.66;5094543;28;20441;-82
2023/04/17 07:16:05;;;;;;;13.60;8.60;;;;;;;13.20;91.26;94195.16;5096080;28;20475;-82
2023/04/17 07:18:32;;;;;;;15.00;7.97;;;;;;;13.35;91.53;94203.25;5060438;28;20536;-83
2023/04/17 07:21:00;;;;;;;9.33;7.57;;;;;;;13.19;91.57;94197.97;5095385;28;20429;-81
2023/04/17 07:23:27;;;;;;;18.50;8.90;;;;;;;13.02;92.82;94194.47;5095024;28;20434;-82
2023/04/17 07:25:54;;;;;;;16.53;8.60;;;;;;;13.12;92.95;94200.41;5095054;28;20515;-81
2023/04/17 07:28:22;;;;;;;9.80;8.63;;;;;;;13.11;92.46;94193.50;5095049;28;20438;-82
2023/04/17 07:30:50;;;;;;;11.80;9.13;;;;;;;13.19;91.16;94204.06;5043351;28;20447;-82
2023/04/17 07:33:16;;;;;;;15.00;9.67;;;;;;;13.32;91.31;94198.31;5094723;28;20518;-83
2023/04/17 07:35:43;;;;;;;18.13;9.70;;;;;;;13.47;90.41;94199.31;5094928;28;20496;-82
2023/04/17 07:38:10;;;;;;;16.67;8.20;;;;;;;13.48;89.67;94195.69;5095734;28;20418;-82
2023/04/17 07:40:37;;;;;;;11.20;8.63;;;;;;;13.58;89.30;94193.69;5094774;28;20430;-83
2023/04/17 07:43:04;;;;;;;17.63;8.40;;;;;;;13.80;88.64;94210.66;5094311;28;20442;-82
2023/04/17 07:45:32;;;;;;;10.27;9.27;;;;;;;13.94;87.55;94209.19;5042246;28;20472;-82
2023/04/17 07:47:59;;;;;;;15.83;9.10;;;;;;;14.08;86.93;94205.84;5093941;28;20542;-81
2023/04/17 07:50:26;;;;;;;16.23;10.37;;;;;;;14.18;85.76;94206.50;5042498;28;20442;-82
2023/04/17 07:52:53;;;;;;;11.40;8.63;;;;;;;14.04;85.05;94209.81;5094269;28;20444;-81
2023/04/17 07:55:20;;;;;;;13.13;9.30;;;;;;;14.10;85.11;94203.84;5094270;28;20486;-82
2023/04/17 07:57:48;;;;;;;16.60;8.33;;;;;;;14.12;84.27;94212.41;5094608;28;20434;-83
2023/04/17 08:00:15;;;;;;;12.77;8.27;;;;;;;14.21;83.85;94211.44;5093776;28;20433;-82
2023/04/17 08:02:44;;;;;;;12.37;8.07;;;;;;;14.14;83.36;94199.88;5093621;28;20446;-82
2023/04/17 08:05:11;;;;;;;14.13;7.57;;;;;;;13.98;84.06;94204.38;5093809;28;20489;-82
2023/04/17 08:07:41;;;;;;;11.73;8.90;;;;;;;14.10;84.14;94203.84;5094280;28;20435;-82
2023/04/17 08:10:08;;;;;;;13.40;7.90;;;;;;;14.14;84.56;94204.34;5094693;28;20450;-82
2023/04/17 08:12:35;;;;;;;12.67;8.07;;;;;;;14.11;84.71;94209.97;5094701;28;20435;-82
2023/04/17 08:15:02;;;;;;;11.83;8.93;;;;;;;13.89;86.62;94207.03;5094029;28;20431;-82
2023/04/17 08:17:29;;;;;;;13.47;8.47;;;;;;;13.57;90.42;94205.22;5093663;28;20507;-79
2023/04/17 08:19:57;;;;;;;9.93;8.43;;;;;;;13.54;91.34;94210.84;5093939;28;20434;-82
2023/04/17 08:22:27;;;;;;;16.20;9.40;;;;;;;13.59;91.79;94195.38;5094243;28;20435;-82
2023/04/17 08:24:56;;;;;;;15.97;9.53;;;;;;;13.71;93.24;94202.94;5109635;28;20938;-81
2023/04/17 08:27:23;;;;;;;10.00;7.90;;;;;;;13.66;92.69;94200.81;5110184;28;20940;-84
2023/04/17 08:29:52;;;;;;;17.90;9.10;;;;;;;13.59;93.55;94203.28;5093822;28;20483;-86
2023/04/17 08:32:19;;;;;;;17.77;9.10;;;;;;;13.67;93.52;94194.53;5094024;28;20433;-82
2023/04/17 08:34:46;;;;;;;12.90;8.70;;;;;;;13.62;92.45;94205.59;5094148;28;20951;-88
2023/04/17 08:37:15;;;;;;;13.30;9.17;;;;;;;13.71;93.74;94203.75;5094299;28;20475;-88
2023/04/17 08:39:42;;;;;;;13.73;9.50;;;;;;;13.70;92.71;94196.84;5094609;28;20446;-84
2023/04/17 08:42:10;;;;;;;13.30;8.87;;;;;;;13.76;93.37;94209.34;5058923;28;20893;-84
2023/04/17 08:44:37;;;;;;;14.90;9.80;;;;;;;13.88;92.80;94199.31;5094868;28;20442;-86
2023/04/17 08:47:07;;;;;;;12.43;8.30;;;;;;;13.78;91.09;94210.00;5100329;28;20523;-82
2023/04/17 08:49:36;;;;;;;12.63;8.27;;;;;;;13.97;89.92;94202.75;5093525;28;20437;-83
2023/04/17 08:52:04;;;;;;;10.20;8.33;;;;;;;14.14;89.86;94199.06;5093197;28;20448;-86
2023/04/17 08:54:34;;;;;;;13.67;9.30;;;;;;;14.24;90.73;94200.53;5089639;28;20503;-80
2023/04/17 08:57:02;;;;;;;16.20;8.70;;;;;;;14.40;89.31;94209.38;5092918;28;20484;-81
2023/04/17 08:59:29;;;;;;;10.83;8.80;;;;;;;14.46;87.93;94216.69;5092587;28;20456;-84
2023/04/17 09:02:04;;;;;;;13.53;9.00;;;;;;;14.59;87.36;94203.75;5087095;28;20456;-80
2023/04/17 09:04:35;;;;;;;13.60;10.30;;;;;;;14.72;87.01;94201.38;5073442;28;20786;-82
2023/04/17 09:07:03;;;;;;;16.60;8.30;;;;;;;14.87;85.44;94204.94;5088721;28;20507;-79
2023/04/17 09:09:46;;;;;;;12.73;6.80;;;;;;;14.95;82.56;94205.88;5092703;28;20442;-81
2023/04/17 09:12:13;;;;;;;9.47;7.10;;;;;;;15.11;80.18;94209.28;5092459;28;20441;-78
2023/04/17 09:14:40;;;;;;;6.90;6.03;;;;;;;14.88;77.74;94206.59;5092268;28;20935;-80
2023/04/17 09:17:07;;;;;;;16.47;9.80;;;;;;;15.05;78.34;94203.88;5092996;28;20511;-81
2023/04/17 09:19:35;;;;;;;9.17;8.20;;;;;;;15.17;78.34;94202.47;5092784;28;20479;-80
2023/04/17 09:22:20;;;;;;;9.30;7.47;;;;;;;15.19;78.17;94209.22;5042459;28;20519;-80
2023/04/17 09:24:48;;;;;;;13.27;6.97;;;;;;;14.67;79.00;94222.19;5084551;28;21194;-79
2023/04/17 09:27:22;;;;;;;12.13;7.20;;;;;;;14.02;86.22;94222.34;5096325;28;20451;-80
2023/04/17 09:29:56;;;;;;;10.27;9.10;;;;;;;14.05;86.35;94214.09;5051452;28;20519;-82
2023/04/17 09:32:23;;;;;;;11.57;8.37;;;;;;;14.17;88.90;94210.13;5089259;28;20478;-85
2023/04/17 09:34:50;;;;;;;13.83;8.60;;;;;;;14.15;88.47;94206.81;5086292;28;21060;-80
2023/04/17 09:37:17;;;;;;;17.20;9.57;;;;;;;14.24;89.88;94207.63;5114226;28;20482;-80
2023/04/17 09:39:57;;;;;;;12.13;8.90;;;;;;;14.37;91.81;94204.44;5105671;28;20774;-80
2023/04/17 09:42:25;;;;;;;16.90;10.43;;;;;;;14.46;92.80;94206.13;5096952;28;20424;-80
2023/04/17 09:44:51;;;;;;;11.80;8.27;;;;;;;14.41;89.50;94205.75;5096908;28;20425;-78
2023/04/17 09:50:40;;;;;;;10.97;8.73;;;;;;;14.51;86.92;94211.72;5095521;28;20430;-78
2023/04/17 09:53:08;;;;;;;9.67;7.50;;;;;;;14.60;87.10;94209.84;5096051;28;20436;-77
2023/04/17 09:55:36;;;;;;;13.33;8.37;;;;;;;14.68;85.89;94205.34;5088141;28;20452;-79
2023/04/17 09:58:05;;;;;;;17.60;8.40;;;;;;;14.82;85.68;94211.75;5076077;28;20441;-78
2023/04/17 10:00:31;;;;;;;10.77;8.60;;;;;;;15.01;85.20;94207.84;5076113;28;20445;-81
2023/04/17 10:02:59;;;;;;;12.00;8.80;;;;;;;15.17;84.57;94191.91;5075985;28;20429;-79
2023/04/17 10:05:27;;;;;;;10.87;8.63;;;;;;;15.32;82.74;94199.88;5075621;28;20811;-80
2023/04/17 10:07:55;;;;;;;11.73;8.10;;;;;;;15.37;80.17;94193.09;5075864;28;20484;-81
2023/04/17 10:10:23;;;;;;;16.03;8.00;;;;;;;15.47;77.21;94201.59;5075872;28;20457;-79
2023/04/17 10:12:55;;;;;;;9.20;7.30;;;;;;;15.54;76.42;94204.34;5075665;28;20465;-79
2023/04/17 10:15:24;;;;;;;11.90;8.73;;;;;;;15.55;76.77;94194.59;5110672;28;20432;-81
2023/04/17 10:17:51;;;;;;;13.17;7.50;;;;;;;15.54;75.99;94196.41;5116606;28;20572;-80
2023/04/17 10:20:38;;;;;;;9.07;8.17;;;;;;;15.52;74.88;94192.31;5117094;28;20453;-83
2023/04/17 10:23:33;;;;;;;10.17;8.20;;;;;;;15.58;73.69;94194.22;5064864;28;20474;-80
2023/04/17 10:26:36;;;;;;;13.13;8.00;;;;;;;15.23;67.57;94207.03;5121753;28;20436;-80
2023/04/17 10:29:05;;;;;;;8.03;7.03;;;;;;;14.95;70.19;94192.69;5120879;28;20844;-81
2023/04/17 10:32:09;;;;;;;7.37;6.67;;;;;;;14.79;69.69;94194.44;5124164;28;20427;-80
2023/04/17 10:34:37;;;;;;;8.30;7.50;;;;;;;14.76;69.77;94189.50;5118453;28;20905;-80
2023/04/17 10:37:03;;;;;;;11.60;8.90;;;;;;;14.91;70.02;94180.81;5119228;28;20521;-81
2023/04/17 10:39:50;;;;;;;8.33;7.53;;;;;;;14.93;70.43;94197.31;5117784;28;20486;-79
2023/04/17 10:42:19;;;;;;;8.60;5.57;;;;;;;14.86;66.79;94190.09;5118461;28;20445;-79
2023/04/17 10:44:50;;;;;;;14.83;7.33;;;;;;;14.95;68.31;94177.66;5117465;28;20483;-80
2023/04/17 10:47:20;;;;;;;8.13;6.60;;;;;;;15.04;68.20;94181.09;5117458;28;20440;-79
2023/04/17 10:49:49;;;;;;;11.70;7.83;;;;;;;15.23;69.02;94185.91;5116545;28;20423;-79
2023/04/17 10:52:37;;;;;;;6.53;5.97;;;;;;;14.92;69.13;94182.47;5112724;28;20444;-80
2023/04/17 10:55:05;;;;;;;11.87;7.87;;;;;;;14.88;69.84;94174.06;5079482;28;20441;-80
2023/04/17 10:57:58;;;;;;;10.50;8.43;;;;;;;14.93;71.06;94184.09;5096174;28;20484;-82
2023/04/17 11:00:33;;;;;;;8.33;7.50;;;;;;;14.86;72.56;94184.81;5096515;28;20455;-81
2023/04/17 11:03:02;;;;;;;27.83;9.30;;;;;;;14.73;70.99;94184.53;5110598;28;21063;-82
2023/04/17 11:05:30;;;;;;;10.00;8.53;;;;;;;14.77;69.45;94183.22;5073614;28;20434;-83
2023/04/17 11:07:57;;;;;;;11.23;8.80;;;;;;;14.72;69.10;94182.06;5105198;28;20522;-79
2023/04/17 11:10:23;;;;;;;14.53;8.90;;;;;;;14.74;68.43;94159.75;5118318;28;20431;-79
2023/04/17 11:12:52;;;;;;;10.03;8.20;;;;;;;14.75;69.10;94181.75;5104086;28;20440;-78
2023/04/17 11:15:26;;;;;;;7.63;6.93;;;;;;;14.56;68.33;94186.44;5114491;28;20443;-77
2023/04/17 11:17:55;;;;;;;13.63;8.77;;;;;;;14.62;67.76;94182.28;5124710;28;20484;-79
2023/04/17 11:20:23;;;;;;;9.13;8.23;;;;;;;14.79;66.96;94169.84;5066932;28;20413;-80
2023/04/17 11:22:50;;;;;;;12.00;7.97;;;;;;;14.94;64.76;94175.19;5111642;28;20436;-78
2023/04/17 11:25:24;;;;;;;10.10;8.80;;;;;;;15.10;65.40;94175.09;5102591;28;20463;-80
2023/04/17 11:27:52;;;;;;;10.80;8.70;;;;;;;15.30;65.92;94175.44;5115534;28;20445;-79
2023/04/17 11:30:28;;;;;;;12.40;9.00;;;;;;;15.55;65.58;94168.97;5111842;28;20440;-78
2023/04/17 11:32:57;;;;;;;11.63;8.30;;;;;;;15.60;63.11;94166.63;5085500;28;20798;-79
2023/04/17 11:35:29;;;;;;;12.60;7.73;;;;;;;15.55;62.21;94168.16;5095156;28;20546;-79
2023/04/17 11:38:11;;;;;;;15.57;9.07;;;;;;;15.41;61.91;94178.50;5067450;28;20558;-80
2023/04/17 11:40:43;;;;;;;10.50;8.60;;;;;;;15.53;62.66;94178.09;5095631;28;20847;-79
2023/04/17 11:43:11;;;;;;;12.73;9.33;;;;;;;15.46;63.71;94162.94;5095225;28;20439;-82
2023/04/17 11:45:41;;;;;;;9.67;8.67;;;;;;;15.47;64.25;94166.41;5037788;28;20514;-80
2023/04/17 11:48:11;;;;;;;12.70;9.07;;;;;;;15.48;66.07;94152.19;5074509;28;20439;-79
2023/04/17 11:50:40;;;;;;;16.20;9.37;;;;;;;15.64;66.06;94146.78;5074231;28;20800;-79